createdAt,value
2023-02-16T00:02:10.789Z,97.56
2023-02-16T00:04:37.911Z,97.78
2023-02-16T00:07:04.926Z,98.30
2023-02-16T00:09:31.873Z,97.86
2023-02-16T00:12:17.845Z,97.67
2023-02-16T00:14:44.841Z,97.93
2023-02-16T00:17:12.056Z,97.76
2023-02-16T00:19:40.831Z,97.53
2023-02-16T00:22:08.790Z,97.75
2023-02-16T00:24:35.851Z,97.87
2023-02-16T00:27:03.347Z,98.03
2023-02-16T00:29:36.893Z,97.78
2023-02-16T00:32:06.009Z,97.46
2023-02-16T00:34:38.150Z,97.06
2023-02-16T00:37:08.209Z,96.68
2023-02-16T00:39:36.161Z,97.21
2023-02-16T00:42:06.191Z,96.59
2023-02-16T00:44:45.103Z,96.62
2023-02-16T00:47:35.157Z,97.07
2023-02-16T00:50:02.109Z,97.07
2023-02-16T00:52:36.431Z,96.30
2023-02-16T00:55:15.445Z,96.70
2023-02-16T00:58:08.991Z,96.92
2023-02-16T01:00:41.115Z,96.47
2023-02-16T01:03:12.432Z,97.29
2023-02-16T01:05:39.412Z,97.33
2023-02-16T01:08:33.487Z,96.59
2023-02-16T01:11:10.290Z,96.66
2023-02-16T01:13:43.449Z,97.35
2023-02-16T01:16:20.674Z,97.26
2023-02-16T01:18:48.151Z,97.43
2023-02-16T01:21:15.219Z,96.96
2023-02-16T01:23:42.320Z,97.83
2023-02-16T01:26:16.746Z,96.96
2023-02-16T01:28:45.921Z,96.98
2023-02-16T01:31:14.562Z,97.30
2023-02-16T01:33:43.264Z,96.32
2023-02-16T01:36:34.262Z,98.08
2023-02-16T01:39:02.451Z,97.80
2023-02-16T01:42:11.991Z,97.95
2023-02-16T01:44:57.557Z,98.15
2023-02-16T01:47:47.852Z,98.72
2023-02-16T01:50:28.151Z,98.31
2023-02-16T01:53:03.125Z,97.21
2023-02-16T01:55:31.942Z,98.02
2023-02-16T01:58:05.875Z,98.09
2023-02-16T02:00:52.771Z,97.12
2023-02-16T02:03:48.599Z,98.25
2023-02-16T02:06:23.902Z,98.26
2023-02-16T02:09:18.390Z,97.05
2023-02-16T02:12:37.296Z,97.56
2023-02-16T02:15:25.265Z,97.19
2023-02-16T02:18:06.987Z,98.03
2023-02-16T02:21:47.572Z,99.04
2023-02-16T02:24:40.325Z,99.44
2023-02-16T02:27:33.221Z,98.62
2023-02-16T02:30:33.846Z,99.05
2023-02-16T02:33:23.410Z,98.23
2023-02-16T02:36:07.897Z,98.41
2023-02-16T02:38:51.164Z,99.61
2023-02-16T02:41:18.050Z,99.51
2023-02-16T02:44:13.249Z,100.00
2023-02-16T02:46:40.329Z,99.69
2023-02-16T02:49:07.340Z,99.77
2023-02-16T02:51:34.340Z,100.00
2023-02-16T02:54:19.639Z,100.00
2023-02-16T02:57:33.253Z,100.00
2023-02-16T03:00:44.215Z,99.77
2023-02-16T03:03:17.289Z,100.00
2023-02-16T03:05:53.532Z,99.12
2023-02-16T03:08:24.284Z,100.00
2023-02-16T03:11:23.676Z,100.00
2023-02-16T03:13:59.677Z,99.04
2023-02-16T03:16:36.238Z,99.68
2023-02-16T03:19:23.699Z,99.49
2023-02-16T03:22:09.729Z,99.53
2023-02-16T03:24:55.399Z,98.20
2023-02-16T03:27:45.964Z,98.73
2023-02-16T03:30:13.998Z,98.55
2023-02-16T03:32:41.848Z,98.98
2023-02-16T03:35:09.015Z,98.59
2023-02-16T03:37:36.106Z,98.26
2023-02-16T03:40:22.741Z,98.25
2023-02-16T03:42:50.984Z,98.70
2023-02-16T03:45:18.988Z,98.30
2023-02-16T03:47:46.065Z,99.55
2023-02-16T03:50:13.086Z,99.81
2023-02-16T03:52:40.028Z,99.49
2023-02-16T03:55:07.110Z,98.89
2023-02-16T03:57:34.103Z,99.43
2023-02-16T04:00:02.511Z,98.34
2023-02-16T04:02:29.910Z,98.83
2023-02-16T04:04:56.874Z,98.94
2023-02-16T04:07:23.944Z,98.06
2023-02-16T04:09:50.850Z,98.25
2023-02-16T04:12:36.509Z,99.27
2023-02-16T04:15:14.878Z,99.94
2023-02-16T04:17:41.836Z,100.00
2023-02-16T04:20:12.122Z,100.00
2023-02-16T04:22:39.018Z,99.78
2023-02-16T04:25:06.843Z,99.53
2023-02-16T04:27:33.918Z,99.44
2023-02-16T04:30:00.915Z,100.00
2023-02-16T04:32:27.901Z,100.00
2023-02-16T04:34:54.879Z,99.99
2023-02-16T04:37:21.845Z,99.75
2023-02-16T04:39:48.785Z,98.41
2023-02-16T04:42:15.893Z,98.05
2023-02-16T04:44:42.865Z,98.00
2023-02-16T04:47:09.750Z,98.47
2023-02-16T04:49:36.719Z,97.46
2023-02-16T04:52:04.302Z,98.48
2023-02-16T04:54:32.423Z,97.47
2023-02-16T04:57:00.216Z,98.23
2023-02-16T04:59:27.344Z,97.16
2023-02-16T05:01:54.468Z,98.13
2023-02-16T05:04:21.517Z,98.17
2023-02-16T05:06:48.463Z,97.60
2023-02-16T05:09:15.438Z,98.17
2023-02-16T05:12:01.163Z,97.76
2023-02-16T05:14:45.218Z,97.73
2023-02-16T05:17:24.101Z,98.39
2023-02-16T05:19:53.703Z,98.65
2023-02-16T05:22:21.172Z,98.40
2023-02-16T05:24:49.054Z,97.68
2023-02-16T05:27:24.563Z,97.29
2023-02-16T05:29:51.535Z,97.16
2023-02-16T05:32:18.664Z,97.73
2023-02-16T05:34:45.915Z,97.75
2023-02-16T05:37:14.567Z,97.21
2023-02-16T05:39:41.623Z,98.28
2023-02-16T05:42:08.999Z,98.59
2023-02-16T05:44:36.673Z,97.52
2023-02-16T05:47:03.779Z,97.58
2023-02-16T05:49:30.897Z,97.39
2023-02-16T05:51:58.038Z,98.44
2023-02-16T05:54:25.024Z,97.90
2023-02-16T05:56:53.357Z,98.83
2023-02-16T05:59:20.607Z,99.57
2023-02-16T06:01:51.312Z,99.17
2023-02-16T06:04:20.220Z,99.11
2023-02-16T06:06:47.741Z,98.20
2023-02-16T06:09:15.200Z,98.07
2023-02-16T06:11:42.822Z,98.27
2023-02-16T06:14:15.768Z,98.28
2023-02-16T06:16:44.674Z,98.92
2023-02-16T06:19:12.810Z,98.64
2023-02-16T06:21:40.291Z,98.31
2023-02-16T06:24:08.651Z,98.82
2023-02-16T06:26:36.286Z,99.07
2023-02-16T06:29:03.636Z,98.85
2023-02-16T06:31:30.716Z,99.99
2023-02-16T06:33:57.901Z,98.81
2023-02-16T06:36:25.263Z,99.17
2023-02-16T06:38:52.396Z,99.10
2023-02-16T06:41:45.646Z,98.95
2023-02-16T06:44:15.520Z,99.10
2023-02-16T06:46:45.098Z,99.65
2023-02-16T06:49:14.445Z,98.53
2023-02-16T06:51:41.464Z,99.11
2023-02-16T06:54:08.441Z,98.52
2023-02-16T06:56:37.777Z,98.36
2023-02-16T06:59:05.006Z,98.38
2023-02-16T07:01:32.664Z,98.06
2023-02-16T07:03:59.564Z,97.80
2023-02-16T07:06:28.838Z,97.60
2023-02-16T07:08:56.273Z,97.33
2023-02-16T07:11:23.255Z,96.63
2023-02-16T07:13:50.673Z,96.27
2023-02-16T07:16:17.666Z,96.05
2023-02-16T07:18:46.408Z,95.98
2023-02-16T07:21:14.322Z,95.01
2023-02-16T07:23:41.293Z,95.49
2023-02-16T07:26:08.832Z,95.33
2023-02-16T07:28:36.078Z,94.76
2023-02-16T07:31:08.545Z,94.43
2023-02-16T07:33:35.859Z,94.03
2023-02-16T07:36:03.058Z,93.77
2023-02-16T07:38:31.009Z,93.75
2023-02-16T07:40:58.294Z,93.18
2023-02-16T07:43:25.699Z,93.60
2023-02-16T07:45:52.912Z,92.92
2023-02-16T07:48:20.223Z,92.01
2023-02-16T07:50:47.260Z,91.64
2023-02-16T07:53:14.210Z,91.26
2023-02-16T07:55:42.791Z,90.82
2023-02-16T07:58:09.951Z,91.59
2023-02-16T08:00:36.863Z,90.83
2023-02-16T08:03:04.605Z,91.04
2023-02-16T08:05:31.542Z,90.18
2023-02-16T08:07:58.475Z,89.44
2023-02-16T08:10:25.580Z,89.34
2023-02-16T08:12:52.678Z,89.69
2023-02-16T08:15:19.626Z,89.00
2023-02-16T08:17:46.546Z,88.36
2023-02-16T08:20:13.928Z,87.39
2023-02-16T08:22:40.848Z,87.64
2023-02-16T08:25:08.090Z,86.47
2023-02-16T08:27:35.972Z,85.88
2023-02-16T08:30:03.215Z,86.90
2023-02-16T08:32:30.513Z,85.77
2023-02-16T08:34:57.631Z,84.84
2023-02-16T08:37:25.258Z,84.82
2023-02-16T08:39:52.321Z,84.48
2023-02-16T08:42:19.323Z,84.87
2023-02-16T08:44:46.605Z,83.62
2023-02-16T08:47:14.068Z,83.24
2023-02-16T08:49:41.413Z,83.68
2023-02-16T08:52:08.373Z,81.63
2023-02-16T08:54:35.255Z,81.95
2023-02-16T08:57:03.255Z,81.85
2023-02-16T08:59:31.459Z,81.20
2023-02-16T09:01:59.611Z,80.49
2023-02-16T09:04:29.135Z,79.21
2023-02-16T09:06:58.251Z,79.45
2023-02-16T09:09:26.594Z,78.88
2023-02-16T09:11:53.571Z,78.97
2023-02-16T09:14:23.302Z,79.26
2023-02-16T09:16:50.602Z,78.62
2023-02-16T09:19:20.836Z,77.36
2023-02-16T09:21:50.996Z,76.55
2023-02-16T09:24:18.477Z,77.97
2023-02-16T09:26:45.475Z,76.94
2023-02-16T09:29:14.162Z,77.25
2023-02-16T09:31:44.539Z,75.95
2023-02-16T09:34:22.240Z,75.93
2023-02-16T09:36:50.106Z,75.80
2023-02-16T09:39:18.786Z,75.30
2023-02-16T09:42:05.309Z,75.28
2023-02-16T09:44:35.054Z,74.97
2023-02-16T09:47:05.347Z,74.36
2023-02-16T09:49:38.221Z,73.89
2023-02-16T09:52:27.389Z,74.99
2023-02-16T09:54:57.963Z,74.89
2023-02-16T09:57:58.878Z,74.59
2023-02-16T10:00:34.667Z,74.55
2023-02-16T10:03:35.205Z,74.14
2023-02-16T10:06:14.095Z,73.03
2023-02-16T10:09:00.694Z,72.84
2023-02-16T10:11:51.488Z,72.27
2023-02-16T10:14:21.454Z,72.33
2023-02-16T10:17:15.377Z,71.99
2023-02-16T10:20:13.434Z,71.33
2023-02-16T10:22:55.453Z,70.70
2023-02-16T10:25:34.402Z,71.08
2023-02-16T10:28:16.264Z,70.79
2023-02-16T10:30:57.581Z,69.46
2023-02-16T10:33:44.887Z,70.45
2023-02-16T10:36:35.256Z,68.88
2023-02-16T10:39:16.945Z,69.35
2023-02-16T10:41:50.111Z,69.88
2023-02-16T10:44:24.352Z,68.26
2023-02-16T10:47:04.267Z,69.43
2023-02-16T10:49:32.988Z,68.06
2023-02-16T10:52:03.084Z,66.97
2023-02-16T10:54:32.422Z,66.83
2023-02-16T10:57:01.216Z,67.43
2023-02-16T10:59:31.188Z,67.35
2023-02-16T11:02:00.192Z,66.63
2023-02-16T11:04:42.849Z,66.43
2023-02-16T11:07:19.082Z,66.53
2023-02-16T11:09:51.386Z,64.88
2023-02-16T11:12:34.320Z,65.93
2023-02-16T11:15:27.197Z,65.01
2023-02-16T11:17:58.233Z,65.00
2023-02-16T11:20:35.091Z,64.90
2023-02-16T11:23:33.110Z,64.39
2023-02-16T11:26:22.799Z,64.76
2023-02-16T11:28:50.985Z,66.10
2023-02-16T11:31:26.763Z,64.01
2023-02-16T11:34:01.359Z,64.86
2023-02-16T11:36:30.351Z,65.97
2023-02-16T11:39:00.717Z,65.50
2023-02-16T11:41:29.810Z,65.61
2023-02-16T11:43:58.138Z,64.69
2023-02-16T11:46:25.812Z,64.32
2023-02-16T11:48:53.188Z,62.71
2023-02-16T11:51:33.104Z,63.34
2023-02-16T11:54:07.961Z,62.68
2023-02-16T11:56:35.936Z,63.01
2023-02-16T11:59:14.797Z,63.95
2023-02-16T12:02:13.746Z,63.93
2023-02-16T12:05:12.773Z,63.93
2023-02-16T12:08:02.715Z,63.24
2023-02-16T12:10:35.513Z,62.98
2023-02-16T12:13:22.234Z,63.97
2023-02-16T12:16:01.900Z,63.21
2023-02-16T12:18:52.700Z,61.48
2023-02-16T12:21:29.678Z,61.20
2023-02-16T12:24:15.062Z,62.30
2023-02-16T12:26:57.093Z,61.83
2023-02-16T12:30:08.578Z,62.05
2023-02-16T12:32:35.522Z,63.09
2023-02-16T12:35:19.294Z,62.75
2023-02-16T12:38:11.228Z,63.37
2023-02-16T12:40:47.268Z,63.60
2023-02-16T12:43:39.257Z,61.75
2023-02-16T12:46:24.077Z,63.02
2023-02-16T12:49:24.749Z,62.22
2023-02-16T12:52:05.572Z,62.72
2023-02-16T12:54:49.828Z,62.72
2023-02-16T12:57:21.812Z,62.65
2023-02-16T12:59:56.804Z,62.06
2023-02-16T13:02:31.448Z,62.34
2023-02-16T13:05:13.940Z,62.28
2023-02-16T13:07:43.834Z,61.61
2023-02-16T13:10:44.598Z,61.41
2023-02-16T13:13:18.048Z,60.40
2023-02-16T13:15:51.399Z,62.10
2023-02-16T13:18:24.275Z,61.80
2023-02-16T13:20:55.957Z,61.55
2023-02-16T13:23:44.559Z,61.41
2023-02-16T13:26:23.325Z,60.92
2023-02-16T13:29:02.544Z,61.07
2023-02-16T13:31:57.270Z,61.56
2023-02-16T13:34:54.210Z,61.71
2023-02-16T13:37:55.670Z,62.07
2023-02-16T13:40:41.748Z,61.45
2023-02-16T13:43:31.048Z,60.93
2023-02-16T13:46:00.648Z,61.82
2023-02-16T13:48:38.333Z,62.04
2023-02-16T13:51:12.230Z,61.90
2023-02-16T13:53:42.716Z,62.96
2023-02-16T13:56:35.623Z,62.84
2023-02-16T13:59:17.715Z,63.46
2023-02-16T14:01:51.874Z,63.33
2023-02-16T14:04:27.438Z,63.63
2023-02-16T14:07:22.186Z,64.15
2023-02-16T14:09:49.813Z,64.28
2023-02-16T14:12:27.072Z,63.54
2023-02-16T14:14:53.917Z,62.83
2023-02-16T14:17:23.614Z,63.48
2023-02-16T14:20:12.047Z,64.31
2023-02-16T14:22:53.707Z,64.39
2023-02-16T14:25:40.519Z,65.07
2023-02-16T14:28:30.006Z,66.20
2023-02-16T14:31:01.087Z,66.26
2023-02-16T14:33:34.450Z,66.36
2023-02-16T14:36:01.321Z,65.82
2023-02-16T14:38:33.182Z,66.59
2023-02-16T14:41:02.529Z,66.15
2023-02-16T14:43:44.814Z,66.98
2023-02-16T14:46:32.806Z,65.96
2023-02-16T14:49:20.719Z,66.12
2023-02-16T14:51:57.163Z,66.48
2023-02-16T14:54:47.691Z,66.69
2023-02-16T14:57:33.648Z,66.96
2023-02-16T15:00:24.968Z,66.45
2023-02-16T15:03:18.062Z,66.22
2023-02-16T15:05:51.357Z,66.34
2023-02-16T15:08:24.144Z,67.07
2023-02-16T15:10:58.636Z,67.71
2023-02-16T15:13:30.922Z,67.29
2023-02-16T15:16:02.396Z,66.91
2023-02-16T15:18:37.783Z,66.90
2023-02-16T15:21:05.481Z,66.71
2023-02-16T15:23:35.842Z,67.59
2023-02-16T15:26:04.384Z,67.86
2023-02-16T15:28:37.591Z,67.98
2023-02-16T15:31:31.227Z,68.11
2023-02-16T15:34:01.829Z,68.29
2023-02-16T15:36:38.701Z,69.18
2023-02-16T15:39:14.396Z,69.02
2023-02-16T15:41:45.857Z,69.77
2023-02-16T15:44:35.763Z,70.49
2023-02-16T15:47:13.991Z,70.27
2023-02-16T15:49:41.470Z,70.20
2023-02-16T15:52:21.800Z,71.24
2023-02-16T15:54:50.217Z,71.24
2023-02-16T15:57:36.266Z,71.94
2023-02-16T16:00:08.795Z,72.21
2023-02-16T16:02:41.681Z,72.36
2023-02-16T16:05:22.198Z,72.53
2023-02-16T16:07:50.738Z,73.37
2023-02-16T16:10:24.906Z,73.22
2023-02-16T16:12:58.170Z,73.38
2023-02-16T16:15:27.191Z,73.93
2023-02-16T16:17:55.297Z,74.25
2023-02-16T16:20:29.692Z,74.58
2023-02-16T16:23:19.541Z,74.62
2023-02-16T16:25:48.818Z,74.56
2023-02-16T16:28:27.958Z,74.88
2023-02-16T16:31:13.859Z,75.63
2023-02-16T16:34:05.330Z,76.23
2023-02-16T16:36:37.142Z,76.12
2023-02-16T16:39:29.223Z,76.36
2023-02-16T16:42:01.752Z,76.95
2023-02-16T16:44:51.624Z,76.30
2023-02-16T16:47:40.145Z,77.12
2023-02-16T16:50:10.137Z,76.92
2023-02-16T16:52:45.993Z,76.38
2023-02-16T16:55:23.465Z,76.85
2023-02-16T16:57:53.317Z,76.76
2023-02-16T17:00:25.390Z,77.47
2023-02-16T17:02:52.718Z,77.11
2023-02-16T17:05:20.277Z,77.43
2023-02-16T17:07:49.440Z,78.21
2023-02-16T17:10:18.095Z,79.48
2023-02-16T17:12:47.497Z,80.13
2023-02-16T17:15:37.611Z,80.99
2023-02-16T17:18:06.178Z,81.58
2023-02-16T17:20:33.495Z,80.85
2023-02-16T17:23:04.880Z,81.50
2023-02-16T17:25:35.465Z,81.73
2023-02-16T17:28:03.135Z,82.23
2023-02-16T17:30:30.844Z,82.35
2023-02-16T17:32:57.853Z,82.40
2023-02-16T17:35:25.182Z,82.22
2023-02-16T17:37:52.264Z,82.56
2023-02-16T17:40:21.839Z,82.26
2023-02-16T17:42:50.257Z,82.28
2023-02-16T17:45:22.193Z,82.74
2023-02-16T17:47:52.728Z,82.42
2023-02-16T17:50:21.159Z,82.40
2023-02-16T17:52:48.111Z,82.35
2023-02-16T17:55:15.181Z,82.29
2023-02-16T17:57:42.363Z,82.94
2023-02-16T18:00:14.676Z,82.81
2023-02-16T18:02:42.956Z,83.27
2023-02-16T18:05:12.980Z,83.29
2023-02-16T18:07:40.538Z,82.70
2023-02-16T18:10:08.742Z,83.69
2023-02-16T18:12:39.132Z,82.93
2023-02-16T18:15:06.341Z,83.18
2023-02-16T18:17:33.542Z,83.79
2023-02-16T18:20:00.670Z,84.31
2023-02-16T18:22:27.763Z,84.47
2023-02-16T18:24:54.933Z,84.42
2023-02-16T18:27:22.051Z,83.82
2023-02-16T18:29:49.376Z,84.58
2023-02-16T18:32:16.527Z,83.82
2023-02-16T18:34:46.588Z,83.89
2023-02-16T18:37:16.411Z,83.96
2023-02-16T18:39:45.109Z,84.60
2023-02-16T18:42:12.238Z,83.94
2023-02-16T18:44:39.537Z,84.46
2023-02-16T18:47:06.901Z,84.35
2023-02-16T18:49:36.386Z,83.92
2023-02-16T18:52:03.723Z,84.31
2023-02-16T18:54:30.675Z,85.21
2023-02-16T18:56:57.587Z,85.39
2023-02-16T18:59:24.554Z,84.99
2023-02-16T19:01:56.460Z,85.43
2023-02-16T19:04:25.452Z,85.38
2023-02-16T19:06:58.440Z,86.42
2023-02-16T19:09:28.609Z,86.10
2023-02-16T19:11:55.766Z,86.15
2023-02-16T19:14:22.789Z,85.68
2023-02-16T19:16:49.734Z,86.12
2023-02-16T19:19:16.642Z,86.38
2023-02-16T19:21:44.618Z,85.90
2023-02-16T19:24:13.180Z,86.73
2023-02-16T19:26:40.761Z,86.65
2023-02-16T19:29:07.718Z,87.00
2023-02-16T19:31:35.781Z,87.01
2023-02-16T19:34:02.967Z,87.18
2023-02-16T19:36:32.257Z,87.71
2023-02-16T19:38:59.524Z,87.29
2023-02-16T19:41:36.296Z,87.71
2023-02-16T19:44:04.008Z,87.87
2023-02-16T19:46:31.782Z,88.25
2023-02-16T19:48:59.445Z,87.31
2023-02-16T19:51:27.846Z,87.83
2023-02-16T19:53:54.748Z,87.38
2023-02-16T19:56:24.862Z,88.01
2023-02-16T19:58:52.331Z,87.61
2023-02-16T20:01:22.208Z,87.63
2023-02-16T20:03:51.079Z,88.24
2023-02-16T20:06:21.671Z,87.79
2023-02-16T20:08:50.896Z,88.06
2023-02-16T20:11:20.006Z,88.48
2023-02-16T20:13:47.882Z,88.41
2023-02-16T20:16:16.745Z,87.73
2023-02-16T20:18:43.835Z,88.38
2023-02-16T20:21:23.553Z,88.21
2023-02-16T20:23:53.428Z,87.92
2023-02-16T20:26:24.013Z,88.98
2023-02-16T20:28:52.135Z,88.42
2023-02-16T20:31:29.741Z,88.40
2023-02-16T20:33:56.883Z,88.14
2023-02-16T20:36:23.907Z,88.57
2023-02-16T20:38:51.011Z,88.72
2023-02-16T20:41:19.975Z,89.16
2023-02-16T20:43:47.462Z,89.42
2023-02-16T20:46:15.324Z,88.92
2023-02-16T20:48:42.303Z,89.65
2023-02-16T20:51:12.040Z,89.10
2023-02-16T20:53:39.948Z,89.26
2023-02-16T20:56:14.481Z,89.96
2023-02-16T20:58:42.706Z,90.14
2023-02-16T21:01:15.142Z,90.01
2023-02-16T21:03:42.396Z,90.02
2023-02-16T21:06:09.713Z,89.88
2023-02-16T21:08:36.714Z,90.96
2023-02-16T21:11:04.494Z,91.01
2023-02-16T21:13:31.559Z,90.84
2023-02-16T21:15:58.582Z,91.19
2023-02-16T21:18:25.950Z,91.02
2023-02-16T21:20:52.923Z,91.50
2023-02-16T21:23:19.889Z,91.47
2023-02-16T21:25:46.863Z,91.39
2023-02-16T21:28:13.804Z,91.36
2023-02-16T21:30:42.135Z,91.54
2023-02-16T21:33:10.013Z,91.97
2023-02-16T21:35:36.945Z,91.60
2023-02-16T21:38:04.760Z,92.50
2023-02-16T21:40:50.398Z,92.18
2023-02-16T21:43:17.573Z,91.98
2023-02-16T21:45:44.555Z,92.11
2023-02-16T21:48:30.690Z,92.48
2023-02-16T21:51:03.450Z,92.12
2023-02-16T21:53:31.036Z,92.80
2023-02-16T21:56:16.605Z,92.72
2023-02-16T21:58:44.327Z,92.53
2023-02-16T22:01:11.595Z,92.59
2023-02-16T22:03:38.888Z,92.47
2023-02-16T22:06:08.204Z,92.72
2023-02-16T22:08:38.188Z,93.37
2023-02-16T22:11:10.926Z,92.94
2023-02-16T22:13:39.076Z,92.92
2023-02-16T22:16:16.821Z,93.21
2023-02-16T22:18:44.912Z,93.00
2023-02-16T22:21:12.621Z,93.24
2023-02-16T22:23:39.999Z,92.78
2023-02-16T22:26:08.186Z,92.79
2023-02-16T22:28:37.142Z,93.25
2023-02-16T22:31:08.893Z,92.65
2023-02-16T22:33:35.935Z,93.41
2023-02-16T22:36:14.002Z,93.52
2023-02-16T22:38:42.533Z,93.17
2023-02-16T22:41:11.695Z,93.27
2023-02-16T22:43:39.869Z,93.59
2023-02-16T22:46:09.572Z,93.38
2023-02-16T22:48:36.652Z,93.08
2023-02-16T22:51:08.629Z,93.36
2023-02-16T22:53:36.041Z,93.58
2023-02-16T22:56:06.310Z,94.05
2023-02-16T22:58:34.030Z,93.42
2023-02-16T23:01:01.109Z,93.72
2023-02-16T23:03:29.263Z,93.14
2023-02-16T23:05:56.710Z,93.28
2023-02-16T23:08:23.754Z,94.03
2023-02-16T23:11:02.718Z,93.60
2023-02-16T23:13:32.031Z,93.89
2023-02-16T23:16:05.455Z,94.15
2023-02-16T23:18:32.777Z,93.99
2023-02-16T23:21:11.708Z,93.39
2023-02-16T23:23:38.603Z,93.96
2023-02-16T23:26:06.686Z,94.01
2023-02-16T23:28:35.616Z,94.09
2023-02-16T23:31:02.843Z,94.63
2023-02-16T23:33:29.770Z,94.59
2023-02-16T23:35:56.778Z,94.36
2023-02-16T23:38:23.789Z,94.98
2023-02-16T23:41:01.607Z,94.43
2023-02-16T23:43:28.738Z,94.24
2023-02-16T23:45:56.219Z,93.96
2023-02-16T23:48:23.818Z,94.84
2023-02-16T23:50:51.763Z,94.95
2023-02-16T23:53:20.141Z,95.08
2023-02-16T23:56:06.667Z,95.13
2023-02-16T23:58:37.195Z,95.24
